WEATHER DATA

YESTERDAY
Time Temp. Dewp. Hum. Bar.
00:02 4.4 0.7 77 1027.5
00:12 4.3 0.6 77 1027.3
00:33 4 0.5 78 1027.2
00:42 3.8 0.3 78 1026.9
00:53 3.7 0.2 78 1027
01:03 3.5 0 78 1026.9
01:13 3.4 -0.1 78 1026.9
01:23 3.3 0 79 1026.9
01:33 3.1 -0.2 79 1026.8
01:43 3 -0.2 79 1026.8
01:53 3 -0.1 80 1026.7
01:55 2.9 -0.2 80 1026.6
02:04 2.8 -0.4 79 1026.6
02:15 2.7 -0.4 80 1026.6
02:25 2.6 -0.4 80 1026.3
02:35 2.5 -0.5 80 1026.6
02:45 2.4 -0.6 80 1026.4
02:55 2.3 -0.7 80 1026.3
03:05 2.1 -0.9 80 1026.2
03:15 2 -1 80 1026.2
03:25 1.9 -1 80 1026
03:36 1.7 -1.2 80 1026
03:45 1.7 -1.2 80 1026
03:55 1.5 -1.2 81 1025.9
04:06 1.4 -1.3 81 1026.1
04:16 1.4 -1.3 81 1026.1
04:26 1.3 -1.4 81 1025.9
04:36 1.2 -1.5 81 1025.9
04:46 1 -1.7 81 1026
04:56 1 -1.7 81 1025.9
05:06 0.9 -1.8 81 1026.1
05:17 0.8 -1.8 81 1025.9
05:26 0.7 -1.9 81 1025.9
05:36 0.6 -2 81 1025.9
05:46 0.5 -2 82 1025.9
05:57 0.4 -2 82 1025.9
06:07 0.4 -2 82 1025.9
06:16 0.3 -2.1 82 1025.9
06:27 0.2 -2.2 82 1026
06:37 0.2 -2.1 83 1025.9
06:47 0.1 -2.2 83 1025.9
06:57 0.2 -2.1 83 1026
07:07 0.2 -1.9 84 1025.9
07:17 0.3 -1.8 84 1026
07:27 0.4 -1.6 85 1026.1
07:38 0.5 -1.5 85 1026.2
07:48 0.6 -1.4 85 1026.2
07:58 0.6 -1.3 86 1026.3
08:07 0.8 -1.1 86 1026.6
08:18 0.9 -0.9 87 1026.4
08:28 1.1 -0.7 87 1026.7
08:38 1.3 -0.5 87 1026.6
08:48 1.6 -0.1 88 1026.3
08:58 1.9 0.1 88 1026.6
09:08 2.3 0.5 88 1026.6
09:18 2.6 0.8 88 1026.7
09:29 2.9 1.3 89 1026.7
09:39 3.3 1.7 89 1026.6
09:48 3.7 2.1 89 1026.6
09:58 4.1 2.5 89 1026.4
10:09 4.5 2.8 89 1026.3
10:19 4.8 3 88 1026.2
10:29 5.2 3.4 88 1026.2
10:39 5.5 3.7 88 1026.2
10:49 5.9 3.9 87 1026.1
10:59 6.3 4.3 87 1025.9
11:09 6.7 4.5 86 1026
11:20 7.1 4.8 85 1025.9
11:29 7.5 5.1 85 1025.9
11:39 7.9 5.4 84 1025.9
11:50 8.2 5.7 84 1025.7
12:00 8.6 5.9 83 1025.7
12:10 9 6.3 83 1025.5
12:19 9.3 6.4 82 1025.5
12:30 9.7 6.8 82 1025.6
12:40 10.1 7 81 1025.6
12:50 10.4 7.1 80 1025.4
13:00 10.8 7.5 80 1025.2
13:10 11.1 7.6 79 1025.2
13:20 11.5 7.8 78 1025.1
13:30 11.7 8 78 1025
13:41 11.9 7.8 76 1025
13:51 12.1 7.8 75 1024.8
14:00 12.4 8.1 75 1024.9
14:11 12.6 7.9 73 1024.9
14:21 12.9 8 72 1024.8
14:31 13.2 7.9 70 1024.8
14:41 13.5 7.5 67 1024.8
14:51 13.7 8.1 69 1024.6
15:01 13.9 8.3 69 1024.5
15:11 14 7.8 66 1024.5
15:21 13.9 7.4 65 1024.5
15:32 13.8 7.3 65 1024.4
15:41 13.7 7.2 65 1024.5
15:51 13.6 6.7 63 1024.4
16:02 13.7 7.2 65 1024.3
16:12 13.8 6.9 63 1024.3
16:22 13.8 6.9 63 1024.3
16:32 13.7 7 64 1024.3
16:42 13.7 6.3 61 1024.2
16:52 13.7 6.8 63 1024.3
17:02 13.6 7.2 65 1024.3
17:13 13.5 7.1 65 1024.3
17:22 13.5 6.8 64 1024.3
17:32 13.3 6.9 65 1024.4
17:42 13.1 6.7 65 1024.3
17:53 12.9 6.7 66 1024.4
18:03 12.7 6.5 66 1024.4
18:12 12.5 6.5 67 1024.4
18:23 12.2 6.5 68 1024.5
18:33 12 6.3 68 1024.6
18:43 11.8 6.1 68 1024.7
18:52 11.5 5.8 68 1024.4
19:03 11.3 5.8 69 1024.7
19:13 11 5.5 69 1024.7
19:23 10.8 5.6 70 1025
19:33 10.6 5.6 71 1025
19:43 10.5 5.5 71 1025
19:53 10.3 5.3 71 1024.9
20:03 10.1 5.3 72 1024.9
20:14 9.9 5.1 72 1025
20:24 9.7 4.9 72 1025
20:33 9.5 4.7 72 1025.1
20:44 9.1 4.3 72 1025
20:54 8.8 4.2 73 1024.9
21:04 8.5 3.9 73 1024.9
21:14 8.3 3.9 74 1025.1
21:24 8.1 3.8 74 1025.1
21:34 7.8 3.7 75 1025.1
21:44 7.6 3.5 75 1025.2
21:54 7.5 3.5 76 1025.2
22:05 7.4 3.5 76 1025.2
22:15 7.3 3.4 76 1025.1
22:24 7 3.1 76 1025.1
22:35 6.8 2.9 76 1025.1
22:45 6.6 2.9 77 1025.2
22:55 6.5 2.9 78 1025.4
23:05 6.4 2.8 78 1025.2
23:15 6.4 3 79 1025.2
23:25 6.4 3 79 1025.2
23:35 6.4 3 79 1025.1
23:46 6.4 3 79 1025.1
23:56 6.5 3.3 80 1025.1

DAY STATISTIC

2019-03-24
TEMPERATURE
AVERAGE
6.7
HIGH
14.0
15:11
LOW
0.1
06:47
PRESSURE
AVERAGE
1025.6
HIGH
1027.5
00:02
LOW
1024.2
16:42
DEWPOINT
AVERAGE
2.9
HIGH
8.3
15:01
LOW
-2.2
06:27
HUMIDITY
AVERAGE
77
HIGH
89
09:29
LOW
61
16:42
TEMPERATURE (°C)
LOW
0.1
HIGH
14.0
AVERAGE
6.7
PRESSURE (hpa)
LOW
1024.2
HIGH
1027.5
AVERAGE
1025.6
DEVICE